Terminal Aerodrome Forecast
Issued by NWS

Home | Current Version | Previous Version | Text Only | Print | Product List | Glossary On
Versions: 1 2 3 4 5 6 7 8 9 10 11 12 13 14
192
FTAK31 PAJN 281734
TAFAWG
TAF
PAWG 281734Z 2818/2918 11004KT P6SM SCT002 BKN050 OVC100
     FM282000 30006KT P6SM BKN050
     FM290400 11006KT P6SM VCSH SCT015 OVC035
     FM291500 12006KT 5SM -SHRA BR BKN015 OVC025
      AMD LTD TO CLD VIS AND WIND 2906/2915=

USA.gov is the U.S. government's official web portal to all federal, state and local government web resources and services.